sensor_id;sensor_type;location;lat;lon;timestamp;P1;durP1;ratioP1;P2;durP2;ratioP2
15629;SDS011;7914;50.842;0.166;2022-10-15T00:02:09;1.80;;;1.80;;
15629;SDS011;7914;50.842;0.166;2022-10-15T00:04:35;1.80;;;1.80;;
15629;SDS011;7914;50.842;0.166;2022-10-15T00:07:01;1.80;;;1.80;;
15629;SDS011;7914;50.842;0.166;2022-10-15T00:09:27;1.80;;;1.80;;
15629;SDS011;7914;50.842;0.166;2022-10-15T00:11:53;2.10;;;2.00;;
15629;SDS011;7914;50.842;0.166;2022-10-15T00:14:18;1.80;;;1.80;;
15629;SDS011;7914;50.842;0.166;2022-10-15T00:16:44;1.70;;;1.70;;
15629;SDS011;7914;50.842;0.166;2022-10-15T00:19:10;1.80;;;1.80;;
15629;SDS011;7914;50.842;0.166;2022-10-15T00:21:37;1.80;;;1.80;;
15629;SDS011;7914;50.842;0.166;2022-10-15T00:24:03;1.77;;;1.77;;
15629;SDS011;7914;50.842;0.166;2022-10-15T00:26:29;1.80;;;1.80;;
15629;SDS011;7914;50.842;0.166;2022-10-15T00:28:56;1.70;;;1.70;;
15629;SDS011;7914;50.842;0.166;2022-10-15T00:31:24;1.70;;;1.70;;
15629;SDS011;7914;50.842;0.166;2022-10-15T00:33:52;1.80;;;1.80;;
15629;SDS011;7914;50.842;0.166;2022-10-15T00:36:21;1.73;;;1.73;;
15629;SDS011;7914;50.842;0.166;2022-10-15T00:38:51;1.70;;;1.70;;
15629;SDS011;7914;50.842;0.166;2022-10-15T00:41:18;2.00;;;1.90;;
15629;SDS011;7914;50.842;0.166;2022-10-15T00:43:50;1.80;;;1.80;;
15629;SDS011;7914;50.842;0.166;2022-10-15T00:46:22;1.73;;;1.73;;
15629;SDS011;7914;50.842;0.166;2022-10-15T00:51:35;1.80;;;1.80;;
15629;SDS011;7914;50.842;0.166;2022-10-15T00:54:08;1.70;;;1.70;;
15629;SDS011;7914;50.842;0.166;2022-10-15T00:56:35;1.70;;;1.70;;
15629;SDS011;7914;50.842;0.166;2022-10-15T00:59:04;1.83;;;1.83;;
15629;SDS011;7914;50.842;0.166;2022-10-15T01:01:31;1.60;;;1.60;;
15629;SDS011;7914;50.842;0.166;2022-10-15T01:03:57;1.70;;;1.70;;
15629;SDS011;7914;50.842;0.166;2022-10-15T01:06:23;1.67;;;1.67;;
15629;SDS011;7914;50.842;0.166;2022-10-15T01:08:50;1.40;;;1.40;;
15629;SDS011;7914;50.842;0.166;2022-10-15T01:28:02;1.30;;;1.30;;
15629;SDS011;7914;50.842;0.166;2022-10-15T01:30:49;1.30;;;1.30;;
15629;SDS011;7914;50.842;0.166;2022-10-15T01:33:39;1.50;;;1.50;;
15629;SDS011;7914;50.842;0.166;2022-10-15T01:38:47;1.43;;;1.43;;
15629;SDS011;7914;50.842;0.166;2022-10-15T01:44:12;1.40;;;1.40;;
15629;SDS011;7914;50.842;0.166;2022-10-15T01:46:44;1.43;;;1.43;;
15629;SDS011;7914;50.842;0.166;2022-10-15T01:49:12;1.40;;;1.40;;
15629;SDS011;7914;50.842;0.166;2022-10-15T01:51:39;1.60;;;1.60;;
15629;SDS011;7914;50.842;0.166;2022-10-15T01:54:09;1.70;;;1.70;;
15629;SDS011;7914;50.842;0.166;2022-10-15T01:56:38;1.47;;;1.47;;
15629;SDS011;7914;50.842;0.166;2022-10-15T01:59:05;1.13;;;1.13;;
15629;SDS011;7914;50.842;0.166;2022-10-15T02:01:33;1.40;;;1.40;;
15629;SDS011;7914;50.842;0.166;2022-10-15T02:03:58;1.30;;;1.30;;
15629;SDS011;7914;50.842;0.166;2022-10-15T02:09:00;1.17;;;1.17;;
15629;SDS011;7914;50.842;0.166;2022-10-15T02:11:26;1.27;;;1.27;;
15629;SDS011;7914;50.842;0.166;2022-10-15T02:16:36;1.20;;;1.20;;
15629;SDS011;7914;50.842;0.166;2022-10-15T02:19:07;1.30;;;1.30;;
15629;SDS011;7914;50.842;0.166;2022-10-15T02:21:46;1.37;;;1.37;;
15629;SDS011;7914;50.842;0.166;2022-10-15T02:24:18;1.10;;;1.10;;
15629;SDS011;7914;50.842;0.166;2022-10-15T02:26:44;1.43;;;1.43;;
15629;SDS011;7914;50.842;0.166;2022-10-15T02:29:11;1.30;;;1.30;;
15629;SDS011;7914;50.842;0.166;2022-10-15T02:31:42;1.53;;;1.53;;
15629;SDS011;7914;50.842;0.166;2022-10-15T02:34:12;1.23;;;1.23;;
15629;SDS011;7914;50.842;0.166;2022-10-15T02:36:42;1.50;;;1.50;;
15629;SDS011;7914;50.842;0.166;2022-10-15T02:39:12;1.47;;;1.47;;
15629;SDS011;7914;50.842;0.166;2022-10-15T02:41:41;1.40;;;1.40;;
15629;SDS011;7914;50.842;0.166;2022-10-15T02:44:08;1.70;;;1.70;;
15629;SDS011;7914;50.842;0.166;2022-10-15T02:46:34;1.50;;;1.50;;
15629;SDS011;7914;50.842;0.166;2022-10-15T02:49:00;1.40;;;1.40;;
15629;SDS011;7914;50.842;0.166;2022-10-15T02:51:25;1.60;;;1.60;;
15629;SDS011;7914;50.842;0.166;2022-10-15T02:53:51;1.50;;;1.50;;
15629;SDS011;7914;50.842;0.166;2022-10-15T02:56:17;1.30;;;1.30;;
15629;SDS011;7914;50.842;0.166;2022-10-15T02:58:42;1.30;;;1.30;;
15629;SDS011;7914;50.842;0.166;2022-10-15T03:01:08;1.20;;;1.20;;
15629;SDS011;7914;50.842;0.166;2022-10-15T03:03:34;1.20;;;1.20;;
15629;SDS011;7914;50.842;0.166;2022-10-15T03:05:59;1.30;;;1.30;;
15629;SDS011;7914;50.842;0.166;2022-10-15T03:08:25;1.27;;;1.27;;
15629;SDS011;7914;50.842;0.166;2022-10-15T03:10:51;1.30;;;1.30;;
15629;SDS011;7914;50.842;0.166;2022-10-15T03:13:16;1.10;;;1.10;;
15629;SDS011;7914;50.842;0.166;2022-10-15T03:15:42;1.20;;;1.20;;
15629;SDS011;7914;50.842;0.166;2022-10-15T03:18:08;1.13;;;1.13;;
15629;SDS011;7914;50.842;0.166;2022-10-15T03:20:33;1.27;;;1.27;;
15629;SDS011;7914;50.842;0.166;2022-10-15T03:22:59;1.30;;;1.30;;
15629;SDS011;7914;50.842;0.166;2022-10-15T03:25:25;1.30;;;1.30;;
15629;SDS011;7914;50.842;0.166;2022-10-15T03:27:50;1.33;;;1.33;;
15629;SDS011;7914;50.842;0.166;2022-10-15T03:30:20;1.30;;;1.30;;
15629;SDS011;7914;50.842;0.166;2022-10-15T03:32:46;1.50;;;1.50;;
15629;SDS011;7914;50.842;0.166;2022-10-15T03:35:12;1.30;;;1.30;;
15629;SDS011;7914;50.842;0.166;2022-10-15T03:37:37;1.33;;;1.33;;
15629;SDS011;7914;50.842;0.166;2022-10-15T03:40:03;1.33;;;1.33;;
15629;SDS011;7914;50.842;0.166;2022-10-15T03:42:29;1.30;;;1.30;;
15629;SDS011;7914;50.842;0.166;2022-10-15T03:44:55;1.20;;;1.20;;
15629;SDS011;7914;50.842;0.166;2022-10-15T03:47:20;1.30;;;1.30;;
15629;SDS011;7914;50.842;0.166;2022-10-15T03:49:46;1.40;;;1.40;;
15629;SDS011;7914;50.842;0.166;2022-10-15T03:52:12;1.30;;;1.30;;
15629;SDS011;7914;50.842;0.166;2022-10-15T03:54:38;1.60;;;1.60;;
15629;SDS011;7914;50.842;0.166;2022-10-15T03:57:03;1.53;;;1.53;;
15629;SDS011;7914;50.842;0.166;2022-10-15T03:59:29;1.60;;;1.60;;
15629;SDS011;7914;50.842;0.166;2022-10-15T04:01:54;1.40;;;1.40;;
15629;SDS011;7914;50.842;0.166;2022-10-15T04:04:20;1.43;;;1.43;;
15629;SDS011;7914;50.842;0.166;2022-10-15T04:06:46;1.50;;;1.50;;
15629;SDS011;7914;50.842;0.166;2022-10-15T04:09:12;1.50;;;1.50;;
15629;SDS011;7914;50.842;0.166;2022-10-15T04:11:38;1.50;;;1.50;;
15629;SDS011;7914;50.842;0.166;2022-10-15T04:14:04;1.50;;;1.50;;
15629;SDS011;7914;50.842;0.166;2022-10-15T04:16:31;1.67;;;1.67;;
15629;SDS011;7914;50.842;0.166;2022-10-15T04:18:57;1.63;;;1.63;;
15629;SDS011;7914;50.842;0.166;2022-10-15T04:21:23;1.60;;;1.60;;
15629;SDS011;7914;50.842;0.166;2022-10-15T04:23:49;1.57;;;1.57;;
15629;SDS011;7914;50.842;0.166;2022-10-15T04:26:15;1.40;;;1.40;;
15629;SDS011;7914;50.842;0.166;2022-10-15T04:28:41;1.50;;;1.50;;
15629;SDS011;7914;50.842;0.166;2022-10-15T04:31:07;1.50;;;1.50;;
15629;SDS011;7914;50.842;0.166;2022-10-15T04:33:33;1.70;;;1.70;;
15629;SDS011;7914;50.842;0.166;2022-10-15T04:38:31;1.50;;;1.50;;
15629;SDS011;7914;50.842;0.166;2022-10-15T04:40:58;1.53;;;1.53;;
15629;SDS011;7914;50.842;0.166;2022-10-15T04:43:25;1.73;;;1.73;;
15629;SDS011;7914;50.842;0.166;2022-10-15T04:45:54;1.70;;;1.70;;
15629;SDS011;7914;50.842;0.166;2022-10-15T04:48:24;1.80;;;1.80;;
15629;SDS011;7914;50.842;0.166;2022-10-15T04:50:51;1.53;;;1.53;;
15629;SDS011;7914;50.842;0.166;2022-10-15T04:53:17;1.80;;;1.80;;
15629;SDS011;7914;50.842;0.166;2022-10-15T04:55:43;1.60;;;1.60;;
15629;SDS011;7914;50.842;0.166;2022-10-15T04:58:08;1.77;;;1.77;;
15629;SDS011;7914;50.842;0.166;2022-10-15T05:00:34;1.60;;;1.60;;
15629;SDS011;7914;50.842;0.166;2022-10-15T05:03:00;1.80;;;1.80;;
15629;SDS011;7914;50.842;0.166;2022-10-15T05:05:25;1.70;;;1.70;;
15629;SDS011;7914;50.842;0.166;2022-10-15T05:07:51;1.60;;;1.60;;
15629;SDS011;7914;50.842;0.166;2022-10-15T05:10:17;1.70;;;1.70;;
15629;SDS011;7914;50.842;0.166;2022-10-15T05:12:42;1.60;;;1.60;;
15629;SDS011;7914;50.842;0.166;2022-10-15T05:15:08;1.70;;;1.70;;
15629;SDS011;7914;50.842;0.166;2022-10-15T05:17:34;1.60;;;1.60;;
15629;SDS011;7914;50.842;0.166;2022-10-15T05:20:00;1.60;;;1.60;;
15629;SDS011;7914;50.842;0.166;2022-10-15T05:22:26;1.70;;;1.70;;
15629;SDS011;7914;50.842;0.166;2022-10-15T05:24:51;1.50;;;1.50;;
15629;SDS011;7914;50.842;0.166;2022-10-15T05:27:17;1.60;;;1.60;;
15629;SDS011;7914;50.842;0.166;2022-10-15T05:29:43;1.80;;;1.80;;
15629;SDS011;7914;50.842;0.166;2022-10-15T05:32:08;1.70;;;1.70;;
15629;SDS011;7914;50.842;0.166;2022-10-15T05:34:34;1.70;;;1.70;;
15629;SDS011;7914;50.842;0.166;2022-10-15T05:37:00;1.70;;;1.70;;
15629;SDS011;7914;50.842;0.166;2022-10-15T05:39:25;1.70;;;1.70;;
15629;SDS011;7914;50.842;0.166;2022-10-15T05:41:51;1.63;;;1.63;;
15629;SDS011;7914;50.842;0.166;2022-10-15T05:44:17;1.70;;;1.70;;
15629;SDS011;7914;50.842;0.166;2022-10-15T05:46:43;1.60;;;1.60;;
15629;SDS011;7914;50.842;0.166;2022-10-15T05:49:08;1.90;;;1.90;;
15629;SDS011;7914;50.842;0.166;2022-10-15T05:51:34;1.80;;;1.80;;
15629;SDS011;7914;50.842;0.166;2022-10-15T05:54:00;1.70;;;1.70;;
15629;SDS011;7914;50.842;0.166;2022-10-15T05:56:25;1.70;;;1.70;;
15629;SDS011;7914;50.842;0.166;2022-10-15T05:58:52;1.80;;;1.80;;
15629;SDS011;7914;50.842;0.166;2022-10-15T06:01:17;2.10;;;2.00;;
15629;SDS011;7914;50.842;0.166;2022-10-15T06:03:43;2.10;;;2.00;;
15629;SDS011;7914;50.842;0.166;2022-10-15T06:06:13;2.00;;;1.90;;
15629;SDS011;7914;50.842;0.166;2022-10-15T06:08:39;2.00;;;2.00;;
15629;SDS011;7914;50.842;0.166;2022-10-15T06:11:05;2.30;;;2.20;;
15629;SDS011;7914;50.842;0.166;2022-10-15T06:13:31;2.20;;;2.10;;
15629;SDS011;7914;50.842;0.166;2022-10-15T06:15:56;2.50;;;2.40;;
15629;SDS011;7914;50.842;0.166;2022-10-15T06:18:22;2.50;;;2.40;;
15629;SDS011;7914;50.842;0.166;2022-10-15T06:20:51;2.47;;;2.37;;
15629;SDS011;7914;50.842;0.166;2022-10-15T06:23:17;2.50;;;2.40;;
15629;SDS011;7914;50.842;0.166;2022-10-15T06:25:43;2.50;;;2.40;;
15629;SDS011;7914;50.842;0.166;2022-10-15T06:28:09;2.70;;;2.60;;
15629;SDS011;7914;50.842;0.166;2022-10-15T06:30:35;2.73;;;2.63;;
15629;SDS011;7914;50.842;0.166;2022-10-15T06:33:01;2.67;;;2.57;;
15629;SDS011;7914;50.842;0.166;2022-10-15T06:35:27;2.83;;;2.73;;
15629;SDS011;7914;50.842;0.166;2022-10-15T06:37:58;3.00;;;2.90;;
15629;SDS011;7914;50.842;0.166;2022-10-15T06:40:24;2.90;;;2.80;;
15629;SDS011;7914;50.842;0.166;2022-10-15T06:42:50;3.00;;;2.90;;
15629;SDS011;7914;50.842;0.166;2022-10-15T06:45:16;3.03;;;2.93;;
15629;SDS011;7914;50.842;0.166;2022-10-15T06:47:42;3.20;;;3.10;;
15629;SDS011;7914;50.842;0.166;2022-10-15T06:50:08;3.20;;;3.10;;
15629;SDS011;7914;50.842;0.166;2022-10-15T06:52:34;3.20;;;3.10;;
15629;SDS011;7914;50.842;0.166;2022-10-15T06:55:00;3.50;;;3.40;;
15629;SDS011;7914;50.842;0.166;2022-10-15T06:57:26;3.50;;;3.40;;
15629;SDS011;7914;50.842;0.166;2022-10-15T06:59:52;3.80;;;3.70;;
15629;SDS011;7914;50.842;0.166;2022-10-15T07:02:18;3.30;;;3.20;;
15629;SDS011;7914;50.842;0.166;2022-10-15T07:04:44;3.20;;;3.10;;
15629;SDS011;7914;50.842;0.166;2022-10-15T07:07:10;2.80;;;2.70;;
15629;SDS011;7914;50.842;0.166;2022-10-15T07:09:36;3.00;;;2.90;;
15629;SDS011;7914;50.842;0.166;2022-10-15T07:12:02;3.13;;;3.03;;
15629;SDS011;7914;50.842;0.166;2022-10-15T07:14:28;3.03;;;2.93;;
15629;SDS011;7914;50.842;0.166;2022-10-15T07:16:54;3.00;;;2.90;;
15629;SDS011;7914;50.842;0.166;2022-10-15T07:19:19;3.30;;;3.20;;
15629;SDS011;7914;50.842;0.166;2022-10-15T07:21:46;3.30;;;3.20;;
15629;SDS011;7914;50.842;0.166;2022-10-15T07:24:12;3.30;;;3.20;;
15629;SDS011;7914;50.842;0.166;2022-10-15T07:26:38;3.70;;;3.60;;
15629;SDS011;7914;50.842;0.166;2022-10-15T07:29:03;3.27;;;3.17;;
15629;SDS011;7914;50.842;0.166;2022-10-15T07:31:30;2.97;;;2.87;;
15629;SDS011;7914;50.842;0.166;2022-10-15T07:33:55;3.20;;;3.10;;
15629;SDS011;7914;50.842;0.166;2022-10-15T07:36:21;3.07;;;2.97;;
15629;SDS011;7914;50.842;0.166;2022-10-15T07:38:47;3.20;;;3.10;;
15629;SDS011;7914;50.842;0.166;2022-10-15T07:41:12;2.80;;;2.70;;
15629;SDS011;7914;50.842;0.166;2022-10-15T07:43:38;3.27;;;3.17;;
15629;SDS011;7914;50.842;0.166;2022-10-15T07:46:04;3.37;;;3.27;;
15629;SDS011;7914;50.842;0.166;2022-10-15T07:48:30;3.17;;;3.07;;
15629;SDS011;7914;50.842;0.166;2022-10-15T07:50:57;3.20;;;3.10;;
15629;SDS011;7914;50.842;0.166;2022-10-15T07:53:24;2.97;;;2.87;;
15629;SDS011;7914;50.842;0.166;2022-10-15T07:55:50;3.00;;;2.90;;
15629;SDS011;7914;50.842;0.166;2022-10-15T07:58:16;3.10;;;3.00;;
15629;SDS011;7914;50.842;0.166;2022-10-15T08:00:42;3.17;;;3.07;;
15629;SDS011;7914;50.842;0.166;2022-10-15T08:03:08;3.20;;;3.10;;
15629;SDS011;7914;50.842;0.166;2022-10-15T08:05:34;3.40;;;3.30;;
15629;SDS011;7914;50.842;0.166;2022-10-15T08:08:00;3.20;;;3.10;;
15629;SDS011;7914;50.842;0.166;2022-10-15T08:10:26;3.00;;;2.90;;
15629;SDS011;7914;50.842;0.166;2022-10-15T08:12:51;3.30;;;3.20;;
15629;SDS011;7914;50.842;0.166;2022-10-15T08:15:18;3.40;;;3.30;;
15629;SDS011;7914;50.842;0.166;2022-10-15T08:17:43;3.40;;;3.30;;
15629;SDS011;7914;50.842;0.166;2022-10-15T08:20:09;3.13;;;3.03;;
15629;SDS011;7914;50.842;0.166;2022-10-15T08:22:35;3.20;;;3.10;;
15629;SDS011;7914;50.842;0.166;2022-10-15T08:25:01;3.27;;;3.17;;
15629;SDS011;7914;50.842;0.166;2022-10-15T08:27:27;3.03;;;2.93;;
15629;SDS011;7914;50.842;0.166;2022-10-15T08:29:53;2.87;;;2.77;;
15629;SDS011;7914;50.842;0.166;2022-10-15T08:32:19;2.80;;;2.70;;
15629;SDS011;7914;50.842;0.166;2022-10-15T08:34:44;2.60;;;2.50;;
15629;SDS011;7914;50.842;0.166;2022-10-15T08:37:10;2.40;;;2.30;;
15629;SDS011;7914;50.842;0.166;2022-10-15T08:39:36;2.60;;;2.50;;
15629;SDS011;7914;50.842;0.166;2022-10-15T08:42:03;2.40;;;2.30;;
15629;SDS011;7914;50.842;0.166;2022-10-15T08:44:35;2.50;;;2.40;;
15629;SDS011;7914;50.842;0.166;2022-10-15T08:49:39;2.17;;;2.07;;
15629;SDS011;7914;50.842;0.166;2022-10-15T08:52:17;1.90;;;1.90;;
15629;SDS011;7914;50.842;0.166;2022-10-15T08:55:08;2.10;;;2.00;;
15629;SDS011;7914;50.842;0.166;2022-10-15T09:02:49;2.20;;;2.10;;
15629;SDS011;7914;50.842;0.166;2022-10-15T09:05:26;2.13;;;2.03;;
15629;SDS011;7914;50.842;0.166;2022-10-15T09:13:04;2.10;;;2.00;;
15629;SDS011;7914;50.842;0.166;2022-10-15T09:15:33;1.90;;;1.90;;
15629;SDS011;7914;50.842;0.166;2022-10-15T09:18:04;1.80;;;1.80;;
15629;SDS011;7914;50.842;0.166;2022-10-15T09:20:35;1.90;;;1.90;;
15629;SDS011;7914;50.842;0.166;2022-10-15T09:23:01;2.00;;;1.90;;
15629;SDS011;7914;50.842;0.166;2022-10-15T09:25:34;1.70;;;1.70;;
15629;SDS011;7914;50.842;0.166;2022-10-15T09:28:07;1.70;;;1.70;;
15629;SDS011;7914;50.842;0.166;2022-10-15T09:30:41;1.80;;;1.80;;
15629;SDS011;7914;50.842;0.166;2022-10-15T09:35:43;1.70;;;1.70;;
15629;SDS011;7914;50.842;0.166;2022-10-15T09:44:09;1.30;;;1.30;;
15629;SDS011;7914;50.842;0.166;2022-10-15T09:46:42;1.10;;;1.10;;
15629;SDS011;7914;50.842;0.166;2022-10-15T09:49:15;1.00;;;1.00;;
15629;SDS011;7914;50.842;0.166;2022-10-15T09:51:56;0.93;;;0.93;;
15629;SDS011;7914;50.842;0.166;2022-10-15T09:57:13;1.00;;;1.00;;
15629;SDS011;7914;50.842;0.166;2022-10-15T10:02:21;0.90;;;0.90;;
15629;SDS011;7914;50.842;0.166;2022-10-15T10:04:48;0.90;;;0.90;;
15629;SDS011;7914;50.842;0.166;2022-10-15T10:07:26;0.80;;;0.80;;
15629;SDS011;7914;50.842;0.166;2022-10-15T10:10:20;0.93;;;0.93;;
15629;SDS011;7914;50.842;0.166;2022-10-15T10:12:51;1.00;;;1.00;;
15629;SDS011;7914;50.842;0.166;2022-10-15T10:15:32;0.90;;;0.90;;
15629;SDS011;7914;50.842;0.166;2022-10-15T10:18:01;0.97;;;0.97;;
15629;SDS011;7914;50.842;0.166;2022-10-15T10:20:30;1.00;;;1.00;;
15629;SDS011;7914;50.842;0.166;2022-10-15T10:22:58;0.90;;;0.90;;
15629;SDS011;7914;50.842;0.166;2022-10-15T10:27:55;1.00;;;1.00;;
15629;SDS011;7914;50.842;0.166;2022-10-15T10:30:34;1.00;;;1.00;;
15629;SDS011;7914;50.842;0.166;2022-10-15T10:33:14;0.90;;;0.90;;
15629;SDS011;7914;50.842;0.166;2022-10-15T10:36:04;1.00;;;1.00;;
15629;SDS011;7914;50.842;0.166;2022-10-15T10:38:36;0.90;;;0.90;;
15629;SDS011;7914;50.842;0.166;2022-10-15T10:41:08;1.00;;;1.00;;
15629;SDS011;7914;50.842;0.166;2022-10-15T10:43:35;1.00;;;1.00;;
15629;SDS011;7914;50.842;0.166;2022-10-15T10:46:21;0.90;;;0.90;;
15629;SDS011;7914;50.842;0.166;2022-10-15T10:48:52;0.90;;;0.90;;
15629;SDS011;7914;50.842;0.166;2022-10-15T10:51:19;0.90;;;0.90;;
15629;SDS011;7914;50.842;0.166;2022-10-15T10:53:53;1.00;;;1.00;;
15629;SDS011;7914;50.842;0.166;2022-10-15T11:01:46;0.90;;;0.90;;
15629;SDS011;7914;50.842;0.166;2022-10-15T11:04:12;1.00;;;1.00;;
15629;SDS011;7914;50.842;0.166;2022-10-15T11:07:09;0.90;;;0.90;;
15629;SDS011;7914;50.842;0.166;2022-10-15T11:09:51;0.90;;;0.90;;
15629;SDS011;7914;50.842;0.166;2022-10-15T11:12:34;0.80;;;0.80;;
15629;SDS011;7914;50.842;0.166;2022-10-15T11:15:16;0.90;;;0.90;;
15629;SDS011;7914;50.842;0.166;2022-10-15T11:29:15;0.90;;;0.90;;
15629;SDS011;7914;50.842;0.166;2022-10-15T11:48:48;0.90;;;0.90;;
15629;SDS011;7914;50.842;0.166;2022-10-15T11:54:46;0.80;;;0.80;;
15629;SDS011;7914;50.842;0.166;2022-10-15T11:57:35;0.80;;;0.80;;
15629;SDS011;7914;50.842;0.166;2022-10-15T12:03:11;0.90;;;0.90;;
15629;SDS011;7914;50.842;0.166;2022-10-15T12:05:45;0.73;;;0.73;;
15629;SDS011;7914;50.842;0.166;2022-10-15T12:08:17;0.80;;;0.80;;
15629;SDS011;7914;50.842;0.166;2022-10-15T12:21:00;0.90;;;0.90;;
15629;SDS011;7914;50.842;0.166;2022-10-15T12:26:50;1.10;;;1.10;;
15629;SDS011;7914;50.842;0.166;2022-10-15T12:28:58;1.00;;;1.00;;
15629;SDS011;7914;50.842;0.166;2022-10-15T12:31:41;0.90;;;0.90;;
15629;SDS011;7914;50.842;0.166;2022-10-15T12:37:14;0.87;;;0.87;;
15629;SDS011;7914;50.842;0.166;2022-10-15T12:39:42;0.90;;;0.90;;
15629;SDS011;7914;50.842;0.166;2022-10-15T12:45:02;1.00;;;1.00;;
15629;SDS011;7914;50.842;0.166;2022-10-15T12:50:27;1.20;;;1.20;;
15629;SDS011;7914;50.842;0.166;2022-10-15T12:55:26;1.10;;;1.10;;
15629;SDS011;7914;50.842;0.166;2022-10-15T12:58:00;1.50;;;1.50;;
15629;SDS011;7914;50.842;0.166;2022-10-15T13:02:55;1.30;;;1.30;;
15629;SDS011;7914;50.842;0.166;2022-10-15T13:05:32;1.30;;;1.30;;
15629;SDS011;7914;50.842;0.166;2022-10-15T13:08:00;1.20;;;1.20;;
15629;SDS011;7914;50.842;0.166;2022-10-15T13:10:37;1.20;;;1.20;;
15629;SDS011;7914;50.842;0.166;2022-10-15T13:13:27;1.10;;;1.10;;
15629;SDS011;7914;50.842;0.166;2022-10-15T13:15:59;1.20;;;1.20;;
15629;SDS011;7914;50.842;0.166;2022-10-15T13:18:26;1.10;;;1.10;;
15629;SDS011;7914;50.842;0.166;2022-10-15T13:20:54;1.10;;;1.10;;
15629;SDS011;7914;50.842;0.166;2022-10-15T13:23:22;1.10;;;1.10;;
15629;SDS011;7914;50.842;0.166;2022-10-15T13:28:41;1.20;;;1.20;;
15629;SDS011;7914;50.842;0.166;2022-10-15T13:31:11;1.00;;;1.00;;
15629;SDS011;7914;50.842;0.166;2022-10-15T13:33:53;1.20;;;1.20;;
15629;SDS011;7914;50.842;0.166;2022-10-15T13:36:23;1.03;;;1.03;;
15629;SDS011;7914;50.842;0.166;2022-10-15T13:38:53;1.03;;;1.03;;
15629;SDS011;7914;50.842;0.166;2022-10-15T13:41:22;1.00;;;1.00;;
15629;SDS011;7914;50.842;0.166;2022-10-15T13:43:50;1.00;;;1.00;;
15629;SDS011;7914;50.842;0.166;2022-10-15T13:46:19;1.10;;;1.10;;
15629;SDS011;7914;50.842;0.166;2022-10-15T13:48:47;1.00;;;1.00;;
15629;SDS011;7914;50.842;0.166;2022-10-15T13:51:13;1.00;;;1.00;;
15629;SDS011;7914;50.842;0.166;2022-10-15T13:53:39;1.00;;;1.00;;
15629;SDS011;7914;50.842;0.166;2022-10-15T13:58:52;1.10;;;1.10;;
15629;SDS011;7914;50.842;0.166;2022-10-15T14:01:21;1.03;;;1.03;;
15629;SDS011;7914;50.842;0.166;2022-10-15T14:03:49;1.10;;;1.10;;
15629;SDS011;7914;50.842;0.166;2022-10-15T14:06:26;1.20;;;1.20;;
15629;SDS011;7914;50.842;0.166;2022-10-15T14:09:02;1.20;;;1.20;;
15629;SDS011;7914;50.842;0.166;2022-10-15T14:11:41;1.13;;;1.13;;
15629;SDS011;7914;50.842;0.166;2022-10-15T14:17:04;1.17;;;1.17;;
15629;SDS011;7914;50.842;0.166;2022-10-15T14:19:33;1.07;;;1.07;;
15629;SDS011;7914;50.842;0.166;2022-10-15T14:22:01;1.10;;;1.10;;
15629;SDS011;7914;50.842;0.166;2022-10-15T14:24:35;1.10;;;1.10;;
15629;SDS011;7914;50.842;0.166;2022-10-15T14:27:03;1.10;;;1.10;;
15629;SDS011;7914;50.842;0.166;2022-10-15T14:29:42;1.10;;;1.10;;
15629;SDS011;7914;50.842;0.166;2022-10-15T14:34:56;0.90;;;0.90;;
15629;SDS011;7914;50.842;0.166;2022-10-15T14:42:39;1.00;;;1.00;;
15629;SDS011;7914;50.842;0.166;2022-10-15T14:47:43;1.10;;;1.10;;
15629;SDS011;7914;50.842;0.166;2022-10-15T14:50:13;1.10;;;1.10;;
15629;SDS011;7914;50.842;0.166;2022-10-15T14:52:47;1.00;;;1.00;;
15629;SDS011;7914;50.842;0.166;2022-10-15T14:55:24;1.10;;;1.10;;
15629;SDS011;7914;50.842;0.166;2022-10-15T14:57:55;1.10;;;1.10;;
15629;SDS011;7914;50.842;0.166;2022-10-15T15:02:53;1.10;;;1.10;;
15629;SDS011;7914;50.842;0.166;2022-10-15T15:05:26;1.10;;;1.10;;
15629;SDS011;7914;50.842;0.166;2022-10-15T15:07:53;1.20;;;1.20;;
15629;SDS011;7914;50.842;0.166;2022-10-15T15:10:21;1.20;;;1.20;;
15629;SDS011;7914;50.842;0.166;2022-10-15T15:12:50;1.23;;;1.23;;
15629;SDS011;7914;50.842;0.166;2022-10-15T15:15:21;1.20;;;1.20;;
15629;SDS011;7914;50.842;0.166;2022-10-15T15:17:49;1.20;;;1.20;;
15629;SDS011;7914;50.842;0.166;2022-10-15T15:20:15;1.30;;;1.30;;
15629;SDS011;7914;50.842;0.166;2022-10-15T15:22:50;1.20;;;1.20;;
15629;SDS011;7914;50.842;0.166;2022-10-15T15:25:19;1.20;;;1.20;;
15629;SDS011;7914;50.842;0.166;2022-10-15T15:27:51;1.20;;;1.20;;
15629;SDS011;7914;50.842;0.166;2022-10-15T15:30:21;1.30;;;1.30;;
15629;SDS011;7914;50.842;0.166;2022-10-15T15:32:48;1.20;;;1.20;;
15629;SDS011;7914;50.842;0.166;2022-10-15T15:38:26;1.20;;;1.20;;
15629;SDS011;7914;50.842;0.166;2022-10-15T15:41:01;1.40;;;1.40;;
15629;SDS011;7914;50.842;0.166;2022-10-15T15:43:44;1.40;;;1.40;;
15629;SDS011;7914;50.842;0.166;2022-10-15T15:46:10;1.20;;;1.20;;
15629;SDS011;7914;50.842;0.166;2022-10-15T15:48:36;1.30;;;1.30;;
15629;SDS011;7914;50.842;0.166;2022-10-15T15:53:42;1.10;;;1.10;;
15629;SDS011;7914;50.842;0.166;2022-10-15T15:56:08;1.10;;;1.10;;
15629;SDS011;7914;50.842;0.166;2022-10-15T15:58:33;1.20;;;1.20;;
15629;SDS011;7914;50.842;0.166;2022-10-15T16:00:59;1.00;;;1.00;;
15629;SDS011;7914;50.842;0.166;2022-10-15T16:03:24;1.00;;;1.00;;
15629;SDS011;7914;50.842;0.166;2022-10-15T16:05:50;1.00;;;1.00;;
15629;SDS011;7914;50.842;0.166;2022-10-15T16:08:16;0.90;;;0.90;;
15629;SDS011;7914;50.842;0.166;2022-10-15T16:10:42;1.00;;;1.00;;
15629;SDS011;7914;50.842;0.166;2022-10-15T16:13:08;0.93;;;0.93;;
15629;SDS011;7914;50.842;0.166;2022-10-15T16:15:34;0.80;;;0.80;;
15629;SDS011;7914;50.842;0.166;2022-10-15T16:18:00;0.90;;;0.90;;
15629;SDS011;7914;50.842;0.166;2022-10-15T16:20:25;0.90;;;0.90;;
15629;SDS011;7914;50.842;0.166;2022-10-15T16:22:51;1.00;;;1.00;;
15629;SDS011;7914;50.842;0.166;2022-10-15T16:25:18;1.00;;;1.00;;
15629;SDS011;7914;50.842;0.166;2022-10-15T16:27:44;1.00;;;1.00;;
15629;SDS011;7914;50.842;0.166;2022-10-15T16:30:13;1.00;;;1.00;;
15629;SDS011;7914;50.842;0.166;2022-10-15T16:32:39;0.90;;;0.90;;
15629;SDS011;7914;50.842;0.166;2022-10-15T16:35:05;0.90;;;0.90;;
15629;SDS011;7914;50.842;0.166;2022-10-15T16:37:31;0.90;;;0.90;;
15629;SDS011;7914;50.842;0.166;2022-10-15T16:39:57;0.90;;;0.90;;
15629;SDS011;7914;50.842;0.166;2022-10-15T16:42:22;1.10;;;1.10;;
15629;SDS011;7914;50.842;0.166;2022-10-15T16:44:48;0.90;;;0.90;;
15629;SDS011;7914;50.842;0.166;2022-10-15T16:47:15;0.90;;;0.90;;
15629;SDS011;7914;50.842;0.166;2022-10-15T16:49:40;0.90;;;0.90;;
15629;SDS011;7914;50.842;0.166;2022-10-15T16:52:07;0.90;;;0.90;;
15629;SDS011;7914;50.842;0.166;2022-10-15T16:54:33;0.90;;;0.90;;
15629;SDS011;7914;50.842;0.166;2022-10-15T16:56:59;1.00;;;1.00;;
15629;SDS011;7914;50.842;0.166;2022-10-15T16:59:25;1.00;;;1.00;;
15629;SDS011;7914;50.842;0.166;2022-10-15T17:01:50;1.00;;;1.00;;
15629;SDS011;7914;50.842;0.166;2022-10-15T17:04:16;1.03;;;1.03;;
15629;SDS011;7914;50.842;0.166;2022-10-15T17:06:42;1.10;;;1.10;;
15629;SDS011;7914;50.842;0.166;2022-10-15T17:09:07;1.00;;;1.00;;
15629;SDS011;7914;50.842;0.166;2022-10-15T17:11:38;0.97;;;0.97;;
15629;SDS011;7914;50.842;0.166;2022-10-15T17:14:09;1.10;;;1.10;;
15629;SDS011;7914;50.842;0.166;2022-10-15T17:16:41;1.20;;;1.20;;
15629;SDS011;7914;50.842;0.166;2022-10-15T17:19:11;1.23;;;1.23;;
15629;SDS011;7914;50.842;0.166;2022-10-15T17:21:39;1.20;;;1.20;;
15629;SDS011;7914;50.842;0.166;2022-10-15T17:24:05;1.20;;;1.20;;
15629;SDS011;7914;50.842;0.166;2022-10-15T17:26:33;1.10;;;1.10;;
15629;SDS011;7914;50.842;0.166;2022-10-15T17:29:05;1.20;;;1.20;;
15629;SDS011;7914;50.842;0.166;2022-10-15T17:31:32;1.10;;;1.10;;
15629;SDS011;7914;50.842;0.166;2022-10-15T17:33:59;1.10;;;1.10;;
15629;SDS011;7914;50.842;0.166;2022-10-15T17:36:27;1.10;;;1.10;;
15629;SDS011;7914;50.842;0.166;2022-10-15T17:38:55;1.10;;;1.10;;
15629;SDS011;7914;50.842;0.166;2022-10-15T17:41:22;1.00;;;1.00;;
15629;SDS011;7914;50.842;0.166;2022-10-15T17:43:50;1.00;;;1.00;;
15629;SDS011;7914;50.842;0.166;2022-10-15T17:46:17;1.00;;;1.00;;